Skip Navigation Links Skip Navigation Links

Current Weather

Metcalf Field, Toledo, Ohio

For information only: do not use for flight planning or navigation.
Latest weather
Observation time Sunday, May 31, 2020 8:53 AM EDT
Local time Sunday, May 31, 2020 9:53 AM EDT
Flight conditions Visual Meteorological Conditions
Winds
Wind direction North (10°)
Wind speed 9 mph
Wind gusting to 17 mph
Visibility 10 mi.
Sky condition
Ceiling unlimited
Sky clear
Temperature 51°F
Dewpoint 38°F
Altimeter 30.34 in.Hg
Derived measurements
Relative humidity 61%
Density altitude -266 ft.
Sea-level pressure 30.34 in.Hg
Remarks
Fully automated report.
Automated weather observing station with precipitation discriminator.
METAR KTDZ 311253Z AUTO 01008G15KT 10SM CLR 11/03 A3034 RMK AO2 SLP273 T01060033

Settings

Location code

InnerDrive.Weather 4.0.6770.0 Release CLR 4.0.30319.42000
Copyright ©2018 Inner Drive Technology. All rights reserved. Portions Copyright ©1986-2018 David Braverman.

Find weather

Site navigation


Skip Navigation Links

Place info

Page info

PayPal - The safer, easier way to pay online!

Return home.

Copyright ©2020 Inner Drive Technology. Purveyors of fine, hand-crafted computer software. Page printed 2020-05-31T13:53:07 UTC.